Terminal Aerodrome Forecast
Issued by NWS

Home | Current Version | Previous Version | Text Only | Print | Product List | Glossary Off
Versions: 1 2 3 4 5 6 7 8 9 10 11 12 13 14 15 16 17 18 19

552
FTUS43 KBIS 230520
TAFJMS
TAF
KJMS 230520Z 2306/2406 04014G23KT P6SM VCSH BKN015
     FM231000 05012G20KT P6SM VCSH OVC010
     FM231200 05013G21KT P6SM OVC008
     FM232100 07017G25KT P6SM OVC010=

USA.gov is the U.S. government's official web portal to all federal, state and local government web resources and services.